Terminal Aerodrome Forecast
Issued by NWS

Home | Current Version | Previous Version | Text Only | Print | Product List | Glossary On
Versions: 1 2 3 4 5 6 7 8 9 10 11 12 13 14 15 16 17 18 19
284
FTUS42 KMHX 261734 CCA
TAFISO
TAF COR
KISO 261734Z 2618/2718 01015G20KT P6SM BKN015
     FM270200 35015KT P6SM BKN020
     FM270800 34015KT P6SM BKN007
     FM271200 34010G20KT P6SM BKN010
     FM271600 34015G25KT P6SM BKN110
      AMD LTD TO CLD VIS AND WIND=

USA.gov is the U.S. government's official web portal to all federal, state and local government web resources and services.